createdAt,value
2018-06-22T00:00:56.025Z,8.07
2018-06-22T00:03:24.069Z,7.57
2018-06-22T00:05:52.072Z,7.37
2018-06-22T00:08:20.062Z,7.93
2018-06-22T00:10:48.139Z,7.57
2018-06-22T00:13:16.140Z,7.80
2018-06-22T00:15:44.140Z,8.17
2018-06-22T00:18:12.137Z,8.20
2018-06-22T00:20:40.092Z,8.23
2018-06-22T00:23:08.177Z,8.50
2018-06-22T00:25:36.231Z,7.97
2018-06-22T00:28:04.252Z,7.50
2018-06-22T00:30:32.277Z,7.47
2018-06-22T00:33:00.275Z,8.20
2018-06-22T00:35:28.305Z,8.27
2018-06-22T00:37:56.327Z,7.83
2018-06-22T00:40:24.286Z,8.33
2018-06-22T00:42:52.279Z,7.90
2018-06-22T00:45:20.259Z,9.30
2018-06-22T00:47:48.319Z,8.40
2018-06-22T00:50:16.257Z,7.83
2018-06-22T00:52:44.286Z,8.53
2018-06-22T00:55:12.294Z,8.97
2018-06-22T00:57:40.404Z,9.23
2018-06-22T01:00:08.445Z,8.37
2018-06-22T01:02:36.441Z,9.20
2018-06-22T01:05:04.538Z,8.97
2018-06-22T01:07:32.553Z,8.57
2018-06-22T01:10:00.680Z,8.57
2018-06-22T01:12:28.633Z,9.73
2018-06-22T01:14:56.607Z,8.33
2018-06-22T01:17:24.576Z,9.00
2018-06-22T01:19:52.571Z,9.40
2018-06-22T01:22:20.614Z,10.53
2018-06-22T01:24:48.628Z,8.87
2018-06-22T01:27:16.665Z,7.70
2018-06-22T01:29:44.749Z,8.40
2018-06-22T01:32:12.826Z,8.63
2018-06-22T01:34:40.865Z,8.87
2018-06-22T01:37:08.959Z,7.73
2018-06-22T01:39:36.922Z,8.13
2018-06-22T01:42:04.980Z,8.83
2018-06-22T01:44:33.051Z,8.87
2018-06-22T01:47:01.010Z,8.87
2018-06-22T01:49:29.029Z,8.67
2018-06-22T01:51:57.029Z,9.90
2018-06-22T01:54:25.098Z,8.27
2018-06-22T01:56:53.093Z,9.73
2018-06-22T01:59:21.117Z,8.33
2018-06-22T02:01:49.130Z,9.17
2018-06-22T02:04:17.117Z,8.53
2018-06-22T02:06:45.132Z,8.50
2018-06-22T02:09:13.525Z,8.50
2018-06-22T02:11:41.550Z,7.77
2018-06-22T02:14:09.625Z,8.67
2018-06-22T02:16:37.943Z,7.87
2018-06-22T02:19:05.953Z,8.27
2018-06-22T02:21:33.973Z,8.27
2018-06-22T02:24:01.987Z,8.67
2018-06-22T02:26:30.080Z,8.47
2018-06-22T02:28:58.147Z,9.17
2018-06-22T02:31:26.129Z,9.50
2018-06-22T02:33:54.164Z,8.50
2018-06-22T02:36:22.204Z,9.30
2018-06-22T02:38:50.171Z,8.80
2018-06-22T02:41:18.315Z,8.67
2018-06-22T02:43:46.509Z,8.77
2018-06-22T02:46:14.531Z,8.60
2018-06-22T02:48:42.610Z,8.57
2018-06-22T02:51:10.688Z,9.10
2018-06-22T02:53:38.778Z,9.80
2018-06-22T02:56:06.857Z,8.50
2018-06-22T02:58:34.830Z,8.43
2018-06-22T03:01:02.909Z,8.60
2018-06-22T03:03:31.108Z,8.70
2018-06-22T03:05:59.132Z,8.77
2018-06-22T03:08:27.169Z,9.17
2018-06-22T03:10:55.171Z,9.43
2018-06-22T03:13:23.237Z,8.33
2018-06-22T03:15:51.324Z,8.33
2018-06-22T03:18:19.380Z,9.00
2018-06-22T03:20:47.464Z,8.90
2018-06-22T03:23:15.516Z,8.47
2018-06-22T03:25:43.585Z,8.33
2018-06-22T03:28:11.570Z,7.80
2018-06-22T03:30:39.665Z,6.83
2018-06-22T03:33:08.003Z,8.43
2018-06-22T03:35:35.976Z,7.37
2018-06-22T03:38:04.018Z,7.27
2018-06-22T03:40:32.050Z,7.57
2018-06-22T03:43:00.060Z,7.33
2018-06-22T03:45:28.165Z,7.03
2018-06-22T03:47:56.254Z,7.77
2018-06-22T03:50:24.332Z,7.13
2018-06-22T03:52:52.484Z,7.67
2018-06-22T03:55:20.446Z,7.83
2018-06-22T03:57:48.757Z,7.93
2018-06-22T04:00:16.840Z,7.60
2018-06-22T04:02:44.906Z,6.70
2018-06-22T04:05:12.974Z,6.40
2018-06-22T04:07:41.032Z,7.67
2018-06-22T04:10:09.225Z,7.10
2018-06-22T04:12:37.363Z,6.70
2018-06-22T04:15:05.478Z,6.30
2018-06-22T04:17:37.961Z,6.53
2018-06-22T04:20:05.952Z,5.83
2018-06-22T04:22:34.084Z,6.20
2018-06-22T04:25:02.333Z,5.93
2018-06-22T04:27:30.393Z,6.13
2018-06-22T04:29:58.436Z,6.07
2018-06-22T04:32:26.458Z,6.10
2018-06-22T04:34:54.515Z,6.60
2018-06-22T04:37:22.678Z,5.50
2018-06-22T04:39:50.807Z,5.53
2018-06-22T04:42:18.854Z,6.07
2018-06-22T04:44:46.931Z,6.50
2018-06-22T04:47:15.020Z,7.07
2018-06-22T04:49:43.031Z,7.10
2018-06-22T04:52:11.082Z,7.73
2018-06-22T04:54:39.519Z,7.90
2018-06-22T04:57:07.872Z,7.70
2018-06-22T04:59:36.144Z,8.53
2018-06-22T05:02:04.961Z,10.10
2018-06-22T05:04:34.293Z,9.53
2018-06-22T05:07:03.937Z,10.30
2018-06-22T05:09:32.751Z,10.00
2018-06-22T05:12:01.125Z,11.70
2018-06-22T05:14:29.417Z,11.83
2018-06-22T05:16:57.795Z,11.07
2018-06-22T05:19:26.273Z,9.83
2018-06-22T05:21:54.758Z,9.30
2018-06-22T05:24:22.999Z,9.27
2018-06-22T05:26:51.608Z,9.73
2018-06-22T05:29:20.544Z,9.73
2018-06-22T05:31:49.120Z,9.23
2018-06-22T05:34:17.608Z,9.83
2018-06-22T05:36:45.849Z,8.73
2018-06-22T05:39:14.141Z,9.43
2018-06-22T05:41:42.786Z,9.90
2018-06-22T05:44:11.153Z,9.50
2018-06-22T05:46:39.873Z,9.80
2018-06-22T05:49:08.747Z,9.40
2018-06-22T05:51:37.633Z,8.90
2018-06-22T05:54:06.713Z,9.87
2018-06-22T05:56:35.539Z,9.60
2018-06-22T05:59:03.754Z,9.53
2018-06-22T06:01:32.048Z,9.07
2018-06-22T06:04:00.698Z,9.13
2018-06-22T06:06:29.346Z,9.17
2018-06-22T06:08:57.711Z,8.83
2018-06-22T06:11:26.231Z,8.50
2018-06-22T06:13:54.604Z,8.70
2018-06-22T06:16:22.960Z,9.13
2018-06-22T06:18:52.061Z,9.37
2018-06-22T06:21:20.653Z,10.07
2018-06-22T06:23:49.074Z,9.80
2018-06-22T06:26:17.656Z,10.93
2018-06-22T06:28:45.865Z,9.20
2018-06-22T06:31:14.075Z,9.90
2018-06-22T06:33:42.582Z,10.37
2018-06-22T06:36:10.997Z,10.67
2018-06-22T06:38:39.477Z,10.27
2018-06-22T06:41:07.891Z,9.60
2018-06-22T06:43:36.356Z,9.27
2018-06-22T06:46:05.088Z,10.17
2018-06-22T06:48:33.420Z,8.67
2018-06-22T06:51:01.700Z,9.57
2018-06-22T06:53:29.914Z,8.67
2018-06-22T06:55:58.233Z,8.83
2018-06-22T06:58:26.819Z,8.73
2018-06-22T07:00:55.480Z,8.97
2018-06-22T07:03:23.739Z,9.37
2018-06-22T07:05:51.900Z,8.50
2018-06-22T07:08:20.802Z,8.27
2018-06-22T07:10:49.681Z,8.30
2018-06-22T07:13:18.109Z,8.83
2018-06-22T07:15:46.367Z,8.10
2018-06-22T07:18:14.549Z,9.07
2018-06-22T07:20:42.813Z,8.97
2018-06-22T07:23:11.001Z,9.67
2018-06-22T07:25:39.324Z,8.87
2018-06-22T07:28:07.853Z,9.07
2018-06-22T07:30:36.384Z,8.40
2018-06-22T07:33:05.213Z,9.47
2018-06-22T07:35:34.136Z,9.60
2018-06-22T07:38:02.285Z,10.17
2018-06-22T07:40:30.508Z,8.87
2018-06-22T07:42:58.765Z,9.77
2018-06-22T07:45:27.066Z,9.57
2018-06-22T07:47:55.449Z,9.40
2018-06-22T07:50:24.047Z,8.47
2018-06-22T07:52:52.331Z,8.93
2018-06-22T07:55:20.786Z,9.47
2018-06-22T07:57:49.251Z,8.83
2018-06-22T08:00:17.902Z,9.50
2018-06-22T08:02:46.244Z,7.83
2018-06-22T08:05:18.104Z,7.37
2018-06-22T08:07:47.022Z,7.20
2018-06-22T08:10:15.746Z,6.75
2018-06-22T08:12:44.649Z,6.97
2018-06-22T08:15:13.177Z,7.40
2018-06-22T08:17:41.871Z,7.17
2018-06-22T08:20:10.552Z,7.40
2018-06-22T08:22:39.198Z,6.73
2018-06-22T08:25:07.904Z,7.33
2018-06-22T08:27:36.491Z,8.20
2018-06-22T08:30:05.582Z,8.00
2018-06-22T08:32:34.242Z,6.92
2018-06-22T08:35:02.644Z,7.95
2018-06-22T08:37:30.953Z,7.20
2018-06-22T08:39:59.527Z,6.90
2018-06-22T08:42:28.466Z,7.37
2018-06-22T08:44:56.938Z,6.80
2018-06-22T08:47:25.609Z,7.40
2018-06-22T08:49:54.104Z,6.95
2018-06-22T08:52:22.844Z,6.83
2018-06-22T08:54:51.537Z,6.72
2018-06-22T08:57:19.976Z,7.22
2018-06-22T08:59:48.489Z,7.58
2018-06-22T09:02:16.810Z,7.50
2018-06-22T09:04:45.188Z,7.60
2018-06-22T09:07:13.888Z,6.55
2018-06-22T09:09:42.418Z,6.97
2018-06-22T09:12:10.837Z,6.87
2018-06-22T09:14:39.216Z,6.05
2018-06-22T09:17:07.715Z,5.97
2018-06-22T09:19:36.176Z,6.55
2018-06-22T09:22:05.990Z,6.40
2018-06-22T09:24:34.578Z,6.50
2018-06-22T09:27:02.939Z,7.10
2018-06-22T09:29:32.045Z,7.40
2018-06-22T09:32:00.355Z,6.12
2018-06-22T09:34:28.460Z,6.10
2018-06-22T09:36:56.705Z,5.50
2018-06-22T09:39:24.991Z,6.28
2018-06-22T09:41:53.362Z,5.60
2018-06-22T09:44:31.880Z,6.22
2018-06-22T09:47:00.056Z,6.05
2018-06-22T09:49:28.547Z,5.87
2018-06-22T09:51:57.361Z,6.22
2018-06-22T09:54:26.244Z,5.83
2018-06-22T09:56:54.502Z,5.45
2018-06-22T09:59:23.490Z,4.83
2018-06-22T10:01:52.682Z,5.47
2018-06-22T10:04:22.019Z,5.72
2018-06-22T10:06:51.121Z,5.85
2018-06-22T10:09:19.434Z,5.40
2018-06-22T10:11:47.993Z,5.67
2018-06-22T10:14:16.518Z,5.30
2018-06-22T10:16:45.014Z,5.05
2018-06-22T10:19:13.556Z,5.67
2018-06-22T10:21:41.809Z,5.50
2018-06-22T10:24:10.299Z,5.40
2018-06-22T10:26:38.475Z,4.95
2018-06-22T10:29:06.894Z,4.78
2018-06-22T10:31:35.514Z,4.90
2018-06-22T10:34:04.182Z,5.00
2018-06-22T10:36:32.317Z,5.05
2018-06-22T10:39:00.525Z,4.92
2018-06-22T10:41:29.229Z,4.72
2018-06-22T10:43:57.546Z,4.62
2018-06-22T10:46:25.979Z,5.20
2018-06-22T10:48:54.370Z,5.17
2018-06-22T10:51:22.696Z,5.05
2018-06-22T10:53:51.202Z,5.08
2018-06-22T10:56:19.684Z,4.53
2018-06-22T10:58:48.318Z,4.62
2018-06-22T11:01:16.584Z,4.58
2018-06-22T11:03:44.903Z,4.83
2018-06-22T11:06:13.281Z,4.35
2018-06-22T11:08:41.704Z,4.30
2018-06-22T11:11:10.138Z,4.25
2018-06-22T11:13:38.556Z,4.22
2018-06-22T11:16:07.123Z,4.22
2018-06-22T11:18:35.442Z,4.03
2018-06-22T11:21:04.063Z,4.08
2018-06-22T11:23:32.572Z,3.70
2018-06-22T11:26:01.103Z,3.80
2018-06-22T11:28:29.629Z,3.47
2018-06-22T11:30:58.174Z,4.20
2018-06-22T11:33:26.682Z,3.90
2018-06-22T11:35:54.839Z,4.57
2018-06-22T11:41:02.488Z,5.00
2018-06-22T11:43:30.927Z,4.07
2018-06-22T11:45:59.218Z,4.73
2018-06-22T11:48:27.386Z,5.30
2018-06-22T11:50:55.846Z,4.63
2018-06-22T11:53:24.304Z,6.60
2018-06-22T11:55:52.595Z,8.33
2018-06-22T11:58:21.031Z,5.30
2018-06-22T12:00:49.749Z,6.20
2018-06-22T12:03:18.238Z,6.90
2018-06-22T12:05:46.369Z,5.73
2018-06-22T12:08:14.610Z,5.87
2018-06-22T12:10:42.882Z,5.10
2018-06-22T12:13:11.240Z,4.80
2018-06-22T12:15:40.150Z,4.27
2018-06-22T12:18:08.343Z,4.47
2018-06-22T12:20:36.776Z,4.80
2018-06-22T12:23:05.064Z,4.80
2018-06-22T12:25:33.506Z,3.70
2018-06-22T12:28:01.999Z,4.30
2018-06-22T12:30:30.481Z,4.13
2018-06-22T12:32:59.005Z,4.17
2018-06-22T12:35:27.333Z,4.30
2018-06-22T12:37:57.039Z,4.43
2018-06-22T12:40:25.380Z,3.90
2018-06-22T12:45:50.950Z,4.00
2018-06-22T12:48:20.166Z,3.75
2018-06-22T12:50:48.706Z,3.47
2018-06-22T12:53:17.074Z,3.80
2018-06-22T12:55:45.274Z,3.10
2018-06-22T12:58:13.672Z,3.20
2018-06-22T13:00:42.153Z,3.40
2018-06-22T13:03:10.497Z,3.40
2018-06-22T13:05:38.697Z,3.03
2018-06-22T13:08:07.133Z,3.70
2018-06-22T13:10:35.271Z,3.63
2018-06-22T13:13:03.464Z,3.80
2018-06-22T13:15:31.958Z,3.17
2018-06-22T13:18:00.153Z,3.40
2018-06-22T13:20:28.574Z,3.73
2018-06-22T13:22:57.304Z,3.40
2018-06-22T13:25:25.894Z,3.80
2018-06-22T13:27:54.160Z,3.83
2018-06-22T13:30:22.949Z,3.93
2018-06-22T13:32:51.287Z,3.73
2018-06-22T13:35:19.549Z,4.50
2018-06-22T13:37:48.069Z,5.03
2018-06-22T13:40:16.636Z,4.47
2018-06-22T13:42:44.980Z,5.07
2018-06-22T13:45:13.301Z,5.13
2018-06-22T13:47:42.232Z,4.60
2018-06-22T13:50:10.566Z,4.80
2018-06-22T13:52:41.841Z,4.47
2018-06-22T13:55:10.791Z,4.20
2018-06-22T13:57:39.656Z,4.80
2018-06-22T14:00:08.623Z,4.57
2018-06-22T14:02:37.066Z,4.73
2018-06-22T14:05:11.516Z,4.43
2018-06-22T14:07:39.855Z,4.90
2018-06-22T14:10:08.439Z,4.20
2018-06-22T14:12:36.787Z,4.00
2018-06-22T14:15:05.294Z,4.20
2018-06-22T14:17:33.624Z,3.67
2018-06-22T14:20:02.412Z,4.10
2018-06-22T14:22:30.813Z,3.40
2018-06-22T14:24:59.252Z,3.60
2018-06-22T14:27:27.344Z,4.27
2018-06-22T14:29:55.562Z,4.30
2018-06-22T14:32:24.012Z,3.63
2018-06-22T14:34:52.673Z,4.10
2018-06-22T14:37:20.937Z,3.80
2018-06-22T14:39:49.204Z,3.10
2018-06-22T14:42:17.446Z,3.80
2018-06-22T14:44:46.395Z,3.60
2018-06-22T14:47:14.819Z,3.57
2018-06-22T14:49:43.031Z,4.10
2018-06-22T14:52:11.413Z,3.83
2018-06-22T14:54:45.336Z,3.77
2018-06-22T14:57:20.308Z,3.70
2018-06-22T14:59:54.129Z,3.70
2018-06-22T15:02:28.457Z,3.80
2018-06-22T15:05:02.552Z,3.80
2018-06-22T15:07:36.370Z,3.40
2018-06-22T15:10:04.560Z,3.60
2018-06-22T15:12:32.815Z,3.47
2018-06-22T15:15:01.241Z,8.10
2018-06-22T15:17:33.914Z,11.90
2018-06-22T15:20:02.269Z,5.53
2018-06-22T15:22:30.573Z,3.73
2018-06-22T15:24:58.894Z,4.33
2018-06-22T15:27:27.064Z,6.77
2018-06-22T15:29:55.480Z,12.23
2018-06-22T15:32:23.776Z,10.07
2018-06-22T20:34:49.086Z,10.83
2018-06-22T20:37:23.023Z,11.00
2018-06-22T20:39:56.955Z,10.83
2018-06-22T20:42:30.546Z,10.47
2018-06-22T20:45:04.622Z,10.43
2018-06-22T20:47:38.670Z,11.07
2018-06-22T20:50:12.337Z,9.77
2018-06-22T20:52:40.469Z,10.10
2018-06-22T20:55:08.842Z,9.97
2018-06-22T20:57:37.106Z,10.33
2018-06-22T21:00:08.878Z,10.20
2018-06-22T21:02:38.200Z,10.30
2018-06-22T21:05:06.411Z,9.63
2018-06-22T21:07:34.763Z,9.87
2018-06-22T21:10:03.191Z,10.60
2018-06-22T21:12:40.411Z,9.97
2018-06-22T21:14:59.643Z,11.47
2018-06-22T21:17:27.826Z,10.63
2018-06-22T21:19:56.095Z,10.23
2018-06-22T21:22:24.151Z,8.23
2018-06-22T21:24:52.509Z,7.13
2018-06-22T21:28:31.041Z,6.20
2018-06-22T21:31:04.538Z,2.97
2018-06-22T21:33:38.301Z,2.60
2018-06-22T21:36:12.374Z,2.90
2018-06-22T21:38:46.075Z,2.30
2018-06-22T21:41:14.246Z,2.20
2018-06-22T21:43:42.432Z,2.50
2018-06-22T21:46:10.454Z,2.80
2018-06-22T21:48:38.762Z,2.13
2018-06-22T21:51:07.018Z,2.10
2018-06-22T21:53:35.349Z,2.20
2018-06-22T21:56:03.808Z,2.90
2018-06-22T21:58:32.116Z,2.80
2018-06-22T22:01:00.205Z,3.00
2018-06-22T22:03:28.269Z,2.90
2018-06-22T22:05:56.737Z,2.70
2018-06-22T22:08:25.206Z,2.90
2018-06-22T22:10:59.197Z,2.70
2018-06-22T22:13:27.355Z,2.87
2018-06-22T22:15:55.415Z,2.73
2018-06-22T22:18:23.531Z,2.90
2018-06-22T22:20:51.634Z,2.40
2018-06-22T22:23:19.797Z,2.73
2018-06-22T22:25:48.539Z,3.00
2018-06-22T22:28:16.909Z,2.60
2018-06-22T22:30:45.126Z,2.67
2018-06-22T22:33:13.404Z,3.10
2018-06-22T22:35:41.659Z,3.67
2018-06-22T22:38:09.850Z,2.67
2018-06-22T22:40:37.984Z,2.97
2018-06-22T22:43:06.615Z,3.10
2018-06-22T22:45:34.670Z,3.83
2018-06-22T22:48:02.949Z,3.40
2018-06-22T22:50:31.098Z,3.33
2018-06-22T22:52:59.202Z,4.20
2018-06-22T22:55:27.378Z,3.93
2018-06-22T22:57:55.601Z,3.80
2018-06-22T23:00:24.077Z,4.87
2018-06-22T23:02:52.205Z,4.60
2018-06-22T23:05:20.283Z,4.50
2018-06-22T23:07:48.356Z,4.07
2018-06-22T23:10:16.592Z,5.30
2018-06-22T23:12:44.704Z,5.43
2018-06-22T23:15:12.942Z,6.07
2018-06-22T23:17:41.698Z,5.63
2018-06-22T23:20:09.829Z,5.80
2018-06-22T23:22:48.818Z,4.90
2018-06-22T23:25:16.996Z,5.73
2018-06-22T23:27:45.079Z,5.33
2018-06-22T23:30:13.229Z,4.93
2018-06-22T23:32:41.381Z,5.43
2018-06-22T23:35:09.456Z,5.47
2018-06-22T23:37:37.556Z,5.23
2018-06-22T23:40:09.511Z,5.47
2018-06-22T23:42:37.865Z,5.33
2018-06-22T23:45:05.983Z,4.47
2018-06-22T23:47:34.124Z,5.03
2018-06-22T23:50:03.347Z,5.43
2018-06-22T23:52:31.560Z,4.83
2018-06-22T23:54:59.779Z,5.03
2018-06-22T23:57:27.930Z,4.73
2018-06-22T23:59:56.202Z,4.80
